Saturday, March 28, 2015
05:13 UTC
  |  Log In   |  Register Free
Airport Search:

Petaluma Municipal Airport
(KO69)

Petaluma Municipal Airport Diagram
No Airport Diagram Available

FAA data valid effective March 05, 2015 - April 30, 2015 (unless otherwise noted).

 
 
 
 
 
 
 
 
 
 
 
 
 
 

Current Aviation Weather for Petaluma Municipal Airport (KO69)

The most recent METAR observation for KO69 was updated at: 1408
METAR Summary (Translated METAR)
KO69
251355Z AUTO 32003KT 10SM CLR 08/08 A3024 RMK AO1
KDVO
251355Z AUTO 00000KT 10SM CLR 11/08 A3022 RMK AO2
(7.3 nm SE from KO69)
KAPC
251354Z AUTO 00000KT 10SM CLR 05/04 A3021 RMK AO2 SLP221 T00500044
(15.6 nm SE from KO69)
TAF
No TAF information found within 50 nm of KDVO
  Airport Weather Conditions for KO69

 Current Weather at O69
52° F
Overcast
North winds at 3.5 mph
O69 NOAA Radar

Pressure: 30.16 in
Humidity: 94%
Wind: North at 3.5 MPH (3 KT)
Dew Point: 50.0°F
Visibility: 10.00 mi


Airport Weather Forecast for KO69

Translated METAR and TAF for KDVO
Translated METAR for KDVO (0513 UTC 28 March 2015)
found at http://aviationweather.gov/adds/metars/
 
METAR text: KDVO 280455Z AUTO 00000KT 10SM CLR 12/10 A3016 RMK AO2
Conditions at: KDVO (NOVATO/GNOSS FLD, CA, US) observed 0455 UTC 28 March 2015
Temperature: 12.0°C (54°F)
Dewpoint: 10.0°C (50°F) [RH = 88%]
Pressure (altimeter): 30.16 inches Hg (1021.4 mb)
Winds: calm
Visibility: 10 or more miles (16+ km)
Ceiling: at least 12,000 feet AGL
Clouds: sky clear below 12,000 feet AGL
Weather: automated observation with no human augmentation;
there may or may not be significant weather present at this time
Translated TAF for KDVO

There is no translated TAF available for this airport

Find All Airport Services Find A Hotel Find A Rental Car Find A Golf Course Find A Restaurant $100 Hamburger



FBO's on the Field
FBO Company Facility Photos Services Transportation Aviation Fuel Prices: Prices include tax
Catering Weather Repair Courtesy Rental Type 100LL JetA JetA+ MOGAS 8087
 
Petaluma Municipal Airport

Currently rated 4.8 by 1 person
FS:Shell
Last Updated: Mar-25
Login to update fuel prices
SS:
Contact Petaluma Municipal AirportMore FBO Information
 
Add another FBO Facility Photos Catering Weather Repair Courtesy Rental Type 100LL JetA JetA+ MOGAS 8087
Services Transportation Aviation Fuel Prices: Prices include tax


model-print
model-print
model-print
model-print